Marble Canyon, AZ (86036)

4:52 PM MST on August 22, 2014 (GMT -0700)
Page Arizona | Change Station
CLOSE
Current Station
Personal Weather Station
Location: Page, AZ
Elevation: 4172 ft
Nearby Weather Stations

Elev 4172 ft 36.90 °N, 111.47 °W | Updated 2 seconds ago

Overcast
Overcast
83.1 °F
Feels Like 82 °F
N
6.0
Wind Variable Wind from SSE
Gusts 12.0 mph

Today
High -- | Low -- °F
--% Chance of Precip.
Yesterday
High -- | Low -- °F
Precip. -- in
5:49 AM 7:08 PM
Waning Crescent, 6% visible
Pressure 29.82 in
Visibility 10.0 miles
Clouds Scattered Clouds 10000 ft
Overcast 11000 ft
Heat Index 82 °F
Dew Point 51 °F
Humidity 33%
Rainfall 0.00 in
Snow Depth Not available.
UV 2 out of 12
Pollen 6.90 out of 12
Air Quality Not available.
Flu Activity Not available.
METAR KPGA 222253Z AUTO 21004KT 10SM SCT100 OVC110 27/08 A2999 RMK AO2 SLP096 T02670083

More Conditions Fewer Conditions

Pressure 29.82 in
Visibility 10.0 miles
Clouds Scattered Clouds 10000 ft
Overcast 11000 ft
Heat Index 82 °F
Dew Point 51 °F
Humidity 33%
Rainfall 0.00 in
Snow Depth Not available.
UV 2 out of 12
Pollen 6.90 out of 12
Air Quality Not available.
Flu Activity Not available.
METAR KPGA 222253Z AUTO 21004KT 10SM SCT100 OVC110 27/08 A2999 RMK AO2 SLP096 T02670083

More Conditions Fewer Conditions

10-Day Weather Forecast

Almanac

Astronomy

Aug. 22, 2014 Rise Set
Actual Time 5:49 AM MST 7:08 PM MST
Civil Twilight 5:22 AM MST 7:35 PM MST
Nautical Twilight 4:50 AM MST 8:07 PM MST
Astronomical Twilight 4:16 AM MST 8:41 PM MST
Moon 3:17 AM MST 5:18 PM MST
Length of Visible Light 14h 13m
Length of Day
13h 19m
Tomorrow will be 2m 10s shorter.
Waning Crescent, 6% of the Moon is Illuminated
Today
Waning Crescent
Aug 25
New
Sep 2
First Quarter
Sep 8
Full
Sep 15
Last Quarter

Today's Extremes

State Highs State Lows

Community

WunderPhotos

Upload Photos

1,746,310 photos uploaded!

WunderBlogs® & News

By Dr. Jeff Masters
Director of Meteorology, Weather Underground
By Kari Strenfel
Meteorologist, Weather Underground
By Christopher C. Burt
Weather Historian, Weather Underground
August 22, 2014
August 22, 2014
August 22, 2014

Nearby

Snow Depth

Station Depth Elevation
Snowslide Canyon 0 in 9730 ft
White Horse Lake 0 in 7180 ft
Workman Creek 1 in 6900 ft
Beaver Head 0 in 7990 ft

Earthquake Activity

City Distance Mag. Time & Date
No recent earthquake activity has been reported nearby.
Minimum magnitude displayed is 2.5.

Coastal Water Temperatures

Place Temperature
No Stations Reporting

Nearby Weather Stations